• Join FlightAware (Why Join?)
  • Login
  • US Flag 
Gobble Gobble! 
07:57PM EST


 

Airport Tracker/Info


-or-


 

Live Flight TrackerFlight Track Log ✈ N298EU ✈ 28-Jul-2013 ✈ KBVY - KBED

Flight Track Log - Related Links

Times and Time Zones

All times are in EDT time to prevent confusion due to time zone crossing. See the N298EU flight status page for this flight to view local times or setup timezone preferences in your user account.

Time Position Orientation Groundspeed Altitude Reporting Facility
EDT Latitude Longitude Course Direction KTS MPH feet Rate Location/Type
12:12PM 42.5900 -70.8740 81° East 106 122 1,400  Level FlightAware
12:12PM 42.5930 -70.8530 79° East 112 129 1,900 480 Climbing FlightAware
12:13PM 42.5970 -70.8340 74° East 129 148 1,900  Level FlightAware
12:13PM 42.6020 -70.8260 50° Northeast 124 143 1,900  Level FlightAware
12:13PM 42.6080 -70.8230 20° North 134 154 1,900 120 Level FlightAware
12:14PM 42.6270 -70.8290 347° North 134 154 2,000 600 Climbing FlightAware
12:14PM 42.6440 -70.8360 343° North 119 137 2,500 900 Climbing FlightAware
12:14PM 42.6500 -70.8380 346° North 118 136 2,600 600 Climbing FlightAware
12:15PM 42.6590 -70.8460 327° Northwest 133 153 2,800 420 Climbing FlightAware
12:15PM 42.6660 -70.8730 289° West 144 166 3,000 180 Climbing FlightAware
12:16PM 42.6670 -70.8960 273° West 146 168 3,000  Level FlightAware
12:16PM 42.6680 -70.9240 273° West 151 174 3,000  Level FlightAware
12:17PM 42.6660 -70.9600 266° West 150 173 3,000  Level FlightAware
12:17PM 42.6620 -70.9800 255° West 153 176 3,000  Level FlightAware
12:17PM 42.6590 -70.9950 255° West 157 181 3,000  Level FlightAware
12:18PM 42.6520 -71.0280 254° West 164 189 3,000  Level FlightAware
12:18PM 42.6500 -71.0380 255° West 164 189 3,000  Level FlightAware
12:18PM 42.6420 -71.0610 245° Southwest 158 182 3,000 -120 Level FlightAware
12:19PM 42.6270 -71.0900 235° Southwest 160 184 2,900 -480 Descending FlightAware
12:19PM 42.6180 -71.1080 236° Southwest 164 189 2,600 -360 Descending FlightAware
12:22PM 42.5700 -71.2420 244° Southwest 136 157 1,900 -240 Descending FlightAware
12:22PM 42.5740 -71.2470 317° Northwest 137 158 1,900 -180 Level FlightAware
12:23PM 42.5970 -71.2470 360° North 138 159 1,800 -180 Descending FlightAware
12:23PM 42.6040 -71.2430 23° Northeast 138 159 1,800  Level FlightAware
12:24PM 42.6180 -71.2290 36° Northeast 137 158 1,800  Level FlightAware
12:24PM 42.6350 -71.2100 39° Northeast 94 108 1,800 -120 Level FlightAware
12:25PM 42.6460 -71.1990 36° Northeast 109 125 1,700 -360 Descending FlightAware
12:25PM 42.6550 -71.1900 36° Northeast 105 121 1,500 -600 Descending FlightAware
12:26PM 42.6660 -71.1770 41° Northeast 106 122 1,200 -660 Descending FlightAware
12:26PM 42.6770 -71.1660 36° Northeast 105 121 900 -600 Descending FlightAware
12:26PM 42.6860 -71.1560 39° Northeast 106 122 700 -540 Descending FlightAware
12:27PM 42.6990 -71.1420 38° Northeast 104 120 400 -420 Descending FlightAware
12:27PM 42.7090 -71.1310 39° Northeast 106 122 300 420 Descending FlightAware
12:28PM 42.7200 -71.1180 41° Northeast 115 132 800 1,140 Climbing FlightAware
12:28PM 42.7270 -71.1110 36° Northeast 113 130 1,200 1,140 Climbing FlightAware
12:28PM 42.7300 -71.1060 51° Northeast 115 132 1,300 1,020 Climbing FlightAware
12:29PM 42.7290 -71.0920 96° East 119 137 1,700 1,080 Climbing FlightAware
12:29PM 42.7240 -71.0870 144° Southeast 124 143 1,900 300 Climbing FlightAware
12:29PM 42.7070 -71.0960 201° Southwest 152 175 1,900  Level FlightAware
12:30PM 42.6990 -71.1070 225° Southwest 159 183 1,900  Level FlightAware
12:30PM 42.6880 -71.1220 225° Southwest 164 189 1,900  Level FlightAware
12:30PM 42.6820 -71.1300 224° Southwest 164 189 1,900  Level FlightAware
12:30PM 42.6760 -71.1380 224° Southwest 164 189 1,900  Level FlightAware
12:31PM 42.6590 -71.1600 224° Southwest 163 188 1,900  Level FlightAware
12:31PM 42.6450 -71.1790 225° Southwest 162 186 1,900  Level FlightAware
12:32PM 42.6320 -71.1970 226° Southwest 164 189 1,900  Level FlightAware
12:32PM 42.6230 -71.2090 224° Southwest 165 190 1,900  Level FlightAware
12:32PM 42.6080 -71.2280 223° Southwest 165 190 1,900 -300 Level FlightAware
12:33PM 42.5990 -71.2420 229° Southwest 176 203 1,700 -300 Descending FlightAware
12:33PM 42.5800 -71.2600 215° Southwest 170 196 1,700 -180 Level FlightAware
12:33PM 42.5720 -71.2660 209° Southwest 170 196 1,600 -300 Descending FlightAware
12:34PM 42.5490 -71.2830 209° Southwest 169 194 1,500 -120 Descending FlightAware
12:34PM 42.5320 -71.2950 207° Southwest 165 190 1,500 -120 Level FlightAware
12:35PM 42.5160 -71.3060 207° Southwest 165 190 1,400 -420 Descending FlightAware
12:35PM 42.5000 -71.3160 205° Southwest 144 166 1,200 -480 Descending FlightAware
12:36PM 42.4850 -71.3170 183° South 107 123 1,000 -720 Descending FlightAware
12:36PM 42.4800 -71.3160 172° South 104 120 800 -540 Descending FlightAware
12:36PM 42.4660 -71.3110 165° South 104 120 600 -360 Descending FlightAware